createdAt,value
2022-08-27T00:01:56.812Z,84
2022-08-27T00:03:57.697Z,84
2022-08-27T00:07:56.294Z,84
2022-08-27T00:09:59.122Z,84
2022-08-27T00:11:58.570Z,84
2022-08-27T00:13:58.310Z,84
2022-08-27T00:15:58.138Z,84
2022-08-27T00:17:57.090Z,84
2022-08-27T00:19:56.616Z,84
2022-08-27T00:21:56.144Z,84
2022-08-27T00:24:01.172Z,84
2022-08-27T00:25:58.231Z,84
2022-08-27T00:27:55.038Z,84
2022-08-27T00:29:57.958Z,84
2022-08-27T00:31:57.169Z,84
2022-08-27T00:33:57.039Z,84
2022-08-27T00:35:57.601Z,83
2022-08-27T00:37:56.524Z,84
2022-08-27T00:40:01.493Z,83
2022-08-27T00:41:58.713Z,83
2022-08-27T00:43:58.594Z,84
2022-08-27T00:45:57.062Z,84
2022-08-27T00:50:01.351Z,83
2022-08-27T00:51:58.426Z,83
2022-08-27T00:54:01.901Z,83
2022-08-27T00:55:56.849Z,83
2022-08-27T00:57:57.140Z,83
2022-08-27T00:59:58.040Z,82
2022-08-27T01:01:55.659Z,82
2022-08-27T01:04:03.625Z,83
2022-08-27T01:06:07.308Z,83
2022-08-27T01:07:57.454Z,82
2022-08-27T01:09:57.007Z,83
2022-08-27T01:13:58.982Z,83
2022-08-27T01:15:57.157Z,83
2022-08-27T01:17:58.154Z,82
2022-08-27T01:19:57.611Z,82
2022-08-27T01:23:58.049Z,83
2022-08-27T01:25:56.644Z,83
2022-08-27T01:28:00.034Z,82
2022-08-27T01:29:57.761Z,82
2022-08-27T01:31:58.023Z,82
2022-08-27T01:33:56.843Z,83
2022-08-27T01:35:57.528Z,83
2022-08-27T01:37:57.426Z,83
2022-08-27T01:39:57.949Z,83
2022-08-27T01:44:05.384Z,83
2022-08-27T01:45:56.523Z,83
2022-08-27T01:47:58.233Z,83
2022-08-27T01:49:55.668Z,84
2022-08-27T01:51:54.370Z,84
2022-08-27T01:53:58.009Z,84
2022-08-27T01:55:58.458Z,84
2022-08-27T01:58:01.741Z,83
2022-08-27T01:59:56.551Z,84
2022-08-27T02:01:59.580Z,84
2022-08-27T02:03:57.189Z,84
2022-08-27T02:05:58.502Z,84
2022-08-27T02:07:56.066Z,84
2022-08-27T02:09:57.153Z,84
2022-08-27T02:11:57.607Z,85
2022-08-27T02:13:56.167Z,84
2022-08-27T02:15:55.305Z,85
2022-08-27T02:18:01.281Z,85
2022-08-27T02:19:59.100Z,85
2022-08-27T02:21:56.720Z,85
2022-08-27T02:23:57.036Z,85
2022-08-27T02:25:56.258Z,85
2022-08-27T02:27:55.307Z,85
2022-08-27T02:29:57.866Z,84
2022-08-27T02:31:53.908Z,85
2022-08-27T02:33:56.314Z,84
2022-08-27T02:37:58.199Z,84
2022-08-27T02:39:56.258Z,85
2022-08-27T02:41:58.089Z,85
2022-08-27T02:43:57.210Z,85
2022-08-27T02:45:59.164Z,85
2022-08-27T02:49:54.814Z,85
2022-08-27T02:51:56.671Z,85
2022-08-27T02:54:02.590Z,85
2022-08-27T02:55:58.660Z,85
2022-08-27T02:57:54.958Z,85
2022-08-27T03:00:01.493Z,85
2022-08-27T03:01:55.488Z,85
2022-08-27T03:03:55.791Z,85
2022-08-27T03:08:01.918Z,85
2022-08-27T03:09:57.083Z,85
2022-08-27T03:14:00.376Z,85
2022-08-27T03:15:57.066Z,86
2022-08-27T03:17:58.953Z,86
2022-08-27T03:19:53.558Z,85
2022-08-27T03:21:57.636Z,86
2022-08-27T03:23:57.874Z,86
2022-08-27T03:25:55.419Z,86
2022-08-27T03:27:58.138Z,85
2022-08-27T03:30:03.629Z,86
2022-08-27T03:31:56.993Z,86
2022-08-27T03:33:55.355Z,86
2022-08-27T03:35:57.780Z,86
2022-08-27T03:37:55.324Z,86
2022-08-27T03:39:59.277Z,86
2022-08-27T03:43:55.593Z,86
2022-08-27T03:46:01.233Z,85
2022-08-27T03:47:58.266Z,86
2022-08-27T03:49:55.560Z,86
2022-08-27T03:51:57.625Z,86
2022-08-27T03:54:01.312Z,87
2022-08-27T03:55:55.789Z,86
2022-08-27T03:57:56.750Z,87
2022-08-27T03:59:57.749Z,87
2022-08-27T04:02:02.078Z,87
2022-08-27T04:07:55.321Z,87
2022-08-27T04:09:57.278Z,87
2022-08-27T04:11:59.794Z,87
2022-08-27T04:13:55.291Z,87
2022-08-27T04:15:55.856Z,87
2022-08-27T04:17:59.071Z,86
2022-08-27T04:19:54.886Z,87
2022-08-27T04:21:56.738Z,87
2022-08-27T04:25:57.386Z,87
2022-08-27T04:28:01.405Z,87
2022-08-27T04:29:57.739Z,87
2022-08-27T04:33:54.913Z,86
2022-08-27T04:36:03.306Z,87
2022-08-27T04:37:55.295Z,86
2022-08-27T04:40:01.395Z,85
2022-08-27T04:44:01.261Z,86
2022-08-27T04:45:55.312Z,86
2022-08-27T04:47:57.745Z,86
2022-08-27T04:49:55.337Z,86
2022-08-27T04:51:58.406Z,86
2022-08-27T04:55:59.839Z,86
2022-08-27T04:58:06.092Z,86
2022-08-27T05:02:00.342Z,85
2022-08-27T05:03:55.917Z,86
2022-08-27T05:07:56.651Z,85
2022-08-27T05:09:57.144Z,85
2022-08-27T05:11:57.704Z,86
2022-08-27T05:14:01.425Z,86
2022-08-27T05:15:55.875Z,87
2022-08-27T05:19:59.131Z,86
2022-08-27T05:21:55.407Z,85
2022-08-27T05:25:56.777Z,84
2022-08-27T05:28:04.984Z,84
2022-08-27T05:29:57.218Z,85
2022-08-27T05:31:57.058Z,84
2022-08-27T05:33:57.811Z,84
2022-08-27T05:37:53.517Z,84
2022-08-27T05:39:56.242Z,85
2022-08-27T05:41:58.056Z,85
2022-08-27T05:43:56.138Z,84
2022-08-27T05:45:55.813Z,85
2022-08-27T05:47:57.230Z,84
2022-08-27T05:50:04.674Z,85
2022-08-27T05:51:56.624Z,85
2022-08-27T05:54:03.648Z,85
2022-08-27T05:56:00.242Z,85
2022-08-27T05:57:55.301Z,85
2022-08-27T06:00:01.463Z,85
2022-08-27T06:01:55.312Z,85
2022-08-27T06:05:57.790Z,84
2022-08-27T06:07:53.907Z,84
2022-08-27T06:10:01.354Z,85
2022-08-27T06:11:58.136Z,84
2022-08-27T06:13:59.719Z,84
2022-08-27T06:15:54.913Z,84
2022-08-27T06:17:58.368Z,83
2022-08-27T06:19:56.633Z,83
2022-08-27T06:22:00.009Z,83
2022-08-27T06:24:01.112Z,82
2022-08-27T06:26:01.363Z,82
2022-08-27T06:27:57.216Z,82
2022-08-27T06:31:57.175Z,83
2022-08-27T06:33:56.676Z,83
2022-08-27T06:35:58.454Z,83
2022-08-27T06:37:56.547Z,82
2022-08-27T06:40:01.091Z,82
2022-08-27T06:42:01.356Z,82
2022-08-27T06:44:01.385Z,82
2022-08-27T06:45:57.117Z,82
2022-08-27T06:48:04.330Z,81
2022-08-27T06:50:01.447Z,81
2022-08-27T06:52:04.851Z,81
2022-08-27T06:53:57.593Z,81
2022-08-27T06:55:58.789Z,80
2022-08-27T06:58:01.180Z,80
2022-08-27T06:59:57.852Z,80
2022-08-27T07:01:56.618Z,80
2022-08-27T07:03:58.072Z,80
2022-08-27T07:06:04.798Z,79
2022-08-27T07:07:55.281Z,79
2022-08-27T07:09:57.069Z,79
2022-08-27T07:11:58.173Z,79
2022-08-27T07:13:55.353Z,79
2022-08-27T07:16:01.383Z,78
2022-08-27T07:17:58.510Z,79
2022-08-27T07:19:55.313Z,79
2022-08-27T07:21:57.114Z,79
2022-08-27T07:25:56.536Z,80
2022-08-27T07:27:53.948Z,79
2022-08-27T07:29:57.760Z,81
2022-08-27T07:31:57.850Z,80
2022-08-27T07:34:02.010Z,80
2022-08-27T07:38:01.403Z,79
2022-08-27T07:39:56.805Z,79
2022-08-27T07:44:01.107Z,80
2022-08-27T07:45:56.767Z,79
2022-08-27T07:49:57.455Z,79
2022-08-27T07:51:56.233Z,78
2022-08-27T07:55:56.774Z,80
2022-08-27T07:57:58.241Z,79
2022-08-27T07:59:57.731Z,79
2022-08-27T08:01:58.314Z,79
2022-08-27T08:04:01.769Z,79
2022-08-27T08:05:57.758Z,78
2022-08-27T08:07:57.169Z,78
2022-08-27T08:09:56.634Z,78
2022-08-27T08:12:01.577Z,77
2022-08-27T08:13:59.393Z,77
2022-08-27T08:15:56.345Z,79
2022-08-27T08:17:57.730Z,78
2022-08-27T08:20:15.639Z,78
2022-08-27T08:23:58.363Z,78
2022-08-27T08:25:56.939Z,78
2022-08-27T08:27:56.737Z,78
2022-08-27T08:29:57.791Z,77
2022-08-27T08:31:53.896Z,77
2022-08-27T08:34:01.410Z,77
2022-08-27T08:35:58.015Z,76
2022-08-27T08:37:56.596Z,76
2022-08-27T08:39:56.326Z,76
2022-08-27T08:41:57.816Z,76
2022-08-27T08:43:53.942Z,75
2022-08-27T08:46:00.134Z,74
2022-08-27T08:49:58.523Z,73
2022-08-27T08:51:59.002Z,73
2022-08-27T08:53:58.105Z,72
2022-08-27T08:56:01.670Z,72
2022-08-27T08:57:56.258Z,72
2022-08-27T09:02:01.558Z,71
2022-08-27T09:04:01.552Z,71
2022-08-27T09:05:57.987Z,72
2022-08-27T09:08:15.345Z,71
2022-08-27T09:09:55.398Z,71
2022-08-27T09:13:58.504Z,71
2022-08-27T09:15:55.398Z,72
2022-08-27T09:18:03.222Z,72
2022-08-27T09:20:01.478Z,72
2022-08-27T09:21:56.987Z,72
2022-08-27T09:23:57.867Z,72
2022-08-27T09:26:04.417Z,72
2022-08-27T09:27:56.242Z,72
2022-08-27T09:30:01.676Z,71
2022-08-27T09:31:59.858Z,72
2022-08-27T09:33:59.889Z,71
2022-08-27T09:35:57.788Z,72
2022-08-27T09:37:56.183Z,71
2022-08-27T09:39:56.455Z,71
2022-08-27T09:41:58.164Z,71
2022-08-27T09:43:56.287Z,70
2022-08-27T09:45:57.254Z,70
2022-08-27T09:53:57.858Z,69
2022-08-27T09:56:01.878Z,70
2022-08-27T09:57:57.721Z,70
2022-08-27T09:59:57.217Z,72
2022-08-27T10:01:57.542Z,71
2022-08-27T10:04:04.631Z,72
2022-08-27T10:06:01.992Z,71
2022-08-27T10:07:57.380Z,71
2022-08-27T10:10:00.874Z,69
2022-08-27T10:11:59.614Z,69
2022-08-27T10:13:55.472Z,69
2022-08-27T10:15:56.933Z,68
2022-08-27T10:17:58.492Z,70
2022-08-27T10:19:55.378Z,71
2022-08-27T10:22:01.750Z,70
2022-08-27T10:23:57.823Z,69
2022-08-27T10:25:55.393Z,71
2022-08-27T10:27:58.795Z,71
2022-08-27T10:29:58.186Z,70
2022-08-27T10:31:55.497Z,71
2022-08-27T10:33:55.386Z,69
2022-08-27T10:35:57.633Z,70
2022-08-27T10:37:55.289Z,69
2022-08-27T10:40:00.080Z,70
2022-08-27T10:41:57.577Z,69
2022-08-27T10:43:55.917Z,70
2022-08-27T10:45:56.737Z,69
2022-08-27T10:50:01.454Z,70
2022-08-27T10:51:55.418Z,69
2022-08-27T10:55:55.697Z,68
2022-08-27T10:58:00.247Z,68
2022-08-27T10:59:57.740Z,69
2022-08-27T11:03:57.819Z,68
2022-08-27T11:05:58.111Z,69
2022-08-27T11:07:55.740Z,67
2022-08-27T11:09:58.519Z,67
2022-08-27T11:13:58.916Z,68
2022-08-27T11:16:02.335Z,68
2022-08-27T11:19:57.135Z,68
2022-08-27T11:22:01.328Z,69
2022-08-27T11:23:57.981Z,68
2022-08-27T11:25:57.199Z,68
2022-08-27T11:28:03.040Z,68
2022-08-27T11:29:56.919Z,67
2022-08-27T11:31:55.473Z,67
2022-08-27T11:33:53.614Z,67
2022-08-27T11:35:57.623Z,66
2022-08-27T11:37:55.472Z,66
2022-08-27T11:39:57.349Z,66
2022-08-27T11:41:57.949Z,66
2022-08-27T11:43:57.498Z,66
2022-08-27T11:45:55.851Z,66
2022-08-27T11:47:57.975Z,65
2022-08-27T11:49:57.590Z,65
2022-08-27T11:51:58.243Z,64
2022-08-27T11:53:58.881Z,64
2022-08-27T11:55:56.374Z,64
2022-08-27T11:57:57.763Z,64
2022-08-27T12:02:01.439Z,63
2022-08-27T12:03:56.773Z,63
2022-08-27T12:06:01.389Z,62
2022-08-27T12:07:54.609Z,63
2022-08-27T12:09:59.041Z,63
2022-08-27T12:11:57.606Z,63
2022-08-27T12:13:57.273Z,62
2022-08-27T12:20:04.899Z,62
2022-08-27T12:22:02.477Z,62
2022-08-27T12:23:56.345Z,62
2022-08-27T12:25:54.936Z,61
2022-08-27T12:28:04.644Z,61
2022-08-27T12:29:57.867Z,62
2022-08-27T12:31:55.675Z,63
2022-08-27T12:33:59.205Z,63
2022-08-27T12:35:57.888Z,63
2022-08-27T12:37:57.073Z,64
2022-08-27T12:39:56.794Z,64
2022-08-27T12:44:00.725Z,65
2022-08-27T12:45:56.278Z,65
2022-08-27T12:49:57.660Z,65
2022-08-27T12:52:02.125Z,65
2022-08-27T12:53:58.607Z,66
2022-08-27T12:55:56.809Z,66
2022-08-27T12:57:58.661Z,66
2022-08-27T13:01:56.688Z,67
2022-08-27T13:03:57.430Z,67
2022-08-27T13:07:56.127Z,68
2022-08-27T13:09:57.444Z,67
2022-08-27T13:11:56.741Z,68
2022-08-27T13:14:01.120Z,68
2022-08-27T13:15:59.308Z,68
2022-08-27T13:17:57.974Z,69
2022-08-27T13:20:01.803Z,69
2022-08-27T13:21:55.418Z,68
2022-08-27T13:23:58.078Z,69
2022-08-27T13:25:55.386Z,68
2022-08-27T13:27:55.937Z,68
2022-08-27T13:29:58.803Z,69
2022-08-27T13:31:56.938Z,71
2022-08-27T13:33:57.279Z,72
2022-08-27T13:35:58.572Z,72
2022-08-27T13:37:55.887Z,73
2022-08-27T13:40:03.275Z,73
2022-08-27T13:44:01.546Z,74
2022-08-27T13:46:01.333Z,74
2022-08-27T13:47:58.008Z,74
2022-08-27T13:50:01.603Z,73
2022-08-27T13:51:57.224Z,74
2022-08-27T13:53:57.834Z,74
2022-08-27T13:55:56.607Z,74
2022-08-27T13:57:56.084Z,74
2022-08-27T13:59:58.270Z,74
2022-08-27T14:01:55.504Z,74
2022-08-27T14:04:02.050Z,73
2022-08-27T14:05:57.184Z,73
2022-08-27T14:07:56.702Z,73
2022-08-27T14:10:00.099Z,74
2022-08-27T14:12:01.470Z,72
2022-08-27T14:13:56.781Z,70
2022-08-27T14:15:57.404Z,70
2022-08-27T14:17:58.207Z,68
2022-08-27T14:19:58.597Z,70
2022-08-27T14:21:57.969Z,70
2022-08-27T14:23:57.996Z,71
2022-08-27T14:25:59.033Z,71
2022-08-27T14:27:56.385Z,72
2022-08-27T14:30:01.728Z,74
2022-08-27T14:31:55.428Z,73
2022-08-27T14:34:05.126Z,73
2022-08-27T14:37:56.300Z,73
2022-08-27T14:39:56.308Z,73
2022-08-27T14:41:58.051Z,72
2022-08-27T14:43:56.785Z,72
2022-08-27T14:45:57.169Z,72
2022-08-27T14:50:01.598Z,70
2022-08-27T14:51:56.337Z,70
2022-08-27T14:53:59.369Z,71
2022-08-27T14:56:00.864Z,71
2022-08-27T14:57:57.239Z,70
2022-08-27T14:59:57.736Z,71
2022-08-27T15:01:57.201Z,70
2022-08-27T15:03:54.996Z,70
2022-08-27T15:06:01.482Z,69
2022-08-27T15:07:55.377Z,69
2022-08-27T15:09:57.181Z,69
2022-08-27T15:12:04.747Z,70
2022-08-27T15:13:58.547Z,70
2022-08-27T15:15:56.996Z,70
2022-08-27T15:19:55.436Z,69
2022-08-27T15:21:55.435Z,68
2022-08-27T15:23:58.247Z,69
2022-08-27T15:25:55.486Z,67
2022-08-27T15:27:55.875Z,66
2022-08-27T15:29:58.305Z,67
2022-08-27T15:31:54.125Z,69
2022-08-27T15:34:05.568Z,69
2022-08-27T15:36:00.955Z,70
2022-08-27T15:37:55.679Z,71
2022-08-27T15:39:56.801Z,69
2022-08-27T15:42:06.115Z,69
2022-08-27T15:44:04.921Z,71
2022-08-27T15:45:55.891Z,71
2022-08-27T15:48:05.028Z,71
2022-08-27T15:49:57.080Z,71
2022-08-27T15:51:59.564Z,72
2022-08-27T15:53:57.988Z,72
2022-08-27T15:56:01.595Z,72
2022-08-27T15:57:57.169Z,72
2022-08-27T16:02:01.510Z,71
2022-08-27T16:03:58.607Z,71
2022-08-27T16:07:56.681Z,71
2022-08-27T16:09:55.472Z,71
2022-08-27T16:14:04.649Z,71
2022-08-27T16:15:57.826Z,71
2022-08-27T16:18:02.127Z,70
2022-08-27T16:19:55.413Z,72
2022-08-27T16:21:58.347Z,70
2022-08-27T16:24:00.200Z,71
2022-08-27T16:25:58.464Z,71
2022-08-27T16:29:58.263Z,73
2022-08-27T16:32:00.628Z,72
2022-08-27T16:33:57.530Z,72
2022-08-27T16:38:03.212Z,73
2022-08-27T16:39:57.893Z,73
2022-08-27T16:43:57.181Z,73
2022-08-27T16:45:56.948Z,73
2022-08-27T16:47:57.450Z,73
2022-08-27T16:50:01.830Z,73
2022-08-27T16:51:58.364Z,73
2022-08-27T16:53:58.250Z,74
2022-08-27T16:56:04.567Z,74
2022-08-27T16:57:56.220Z,74
2022-08-27T16:59:58.477Z,73
2022-08-27T17:01:59.401Z,73
2022-08-27T17:04:08.708Z,73
2022-08-27T17:06:07.829Z,73
2022-08-27T17:07:55.442Z,74
2022-08-27T17:09:57.590Z,74
2022-08-27T17:11:59.363Z,74
2022-08-27T17:13:53.644Z,74
2022-08-27T17:15:57.453Z,74
2022-08-27T17:17:58.151Z,74
2022-08-27T17:19:53.704Z,75
2022-08-27T17:21:57.211Z,76
2022-08-27T17:24:01.866Z,76
2022-08-27T17:25:55.936Z,77
2022-08-27T17:27:59.421Z,76
2022-08-27T17:29:58.655Z,76
2022-08-27T17:31:57.691Z,75
2022-08-27T17:34:02.094Z,76
2022-08-27T17:35:57.985Z,76
2022-08-27T17:37:57.742Z,76
2022-08-27T17:39:56.479Z,76
2022-08-27T17:43:55.481Z,76
2022-08-27T17:45:53.934Z,77
2022-08-27T17:47:57.712Z,77
2022-08-27T17:50:01.321Z,78
2022-08-27T17:51:58.439Z,79
2022-08-27T17:54:01.338Z,78
2022-08-27T17:55:58.119Z,79
2022-08-27T17:57:55.482Z,79
2022-08-27T18:00:01.542Z,79
2022-08-27T18:04:01.517Z,80
2022-08-27T18:07:57.646Z,80
2022-08-27T18:09:55.948Z,79
2022-08-27T18:11:57.520Z,79
2022-08-27T18:13:56.594Z,79
2022-08-27T18:15:57.347Z,80
2022-08-27T18:17:59.972Z,80
2022-08-27T18:20:01.550Z,80
2022-08-27T18:21:57.421Z,80
2022-08-27T18:25:54.712Z,80
2022-08-27T18:27:55.423Z,79
2022-08-27T18:29:57.509Z,80
2022-08-27T18:32:01.564Z,80
2022-08-27T18:33:57.757Z,80
2022-08-27T18:37:55.915Z,80
2022-08-27T18:39:56.949Z,80
2022-08-27T18:43:56.864Z,80
2022-08-27T18:45:56.624Z,80
2022-08-27T18:47:57.872Z,80
2022-08-27T18:49:55.897Z,80
2022-08-27T18:51:58.340Z,80
2022-08-27T18:55:55.889Z,81
2022-08-27T18:57:53.711Z,81
2022-08-27T18:59:58.635Z,81
2022-08-27T19:01:57.134Z,81
2022-08-27T19:05:58.592Z,82
2022-08-27T19:07:58.606Z,82
2022-08-27T19:09:58.533Z,82
2022-08-27T19:11:58.338Z,82
2022-08-27T19:13:55.755Z,82
2022-08-27T19:15:56.760Z,82
2022-08-27T19:19:55.468Z,82
2022-08-27T19:21:56.171Z,83
2022-08-27T19:23:58.265Z,83
2022-08-27T19:26:01.384Z,83
2022-08-27T19:28:02.370Z,83
2022-08-27T19:32:01.601Z,83
2022-08-27T19:33:57.375Z,83
2022-08-27T19:37:55.012Z,83
2022-08-27T19:39:56.528Z,83
2022-08-27T19:42:01.592Z,83
2022-08-27T19:44:00.326Z,83
2022-08-27T19:45:55.944Z,83
2022-08-27T19:50:00.003Z,83
2022-08-27T19:51:56.396Z,83
2022-08-27T19:55:57.555Z,83
2022-08-27T19:57:57.117Z,82
2022-08-27T19:59:57.003Z,83
2022-08-27T20:02:04.616Z,83
2022-08-27T20:03:56.891Z,83
2022-08-27T20:08:03.177Z,83
2022-08-27T20:09:56.865Z,83
2022-08-27T20:13:55.453Z,83
2022-08-27T20:16:03.596Z,83
2022-08-27T20:19:55.978Z,83
2022-08-27T20:21:57.844Z,83
2022-08-27T20:23:57.895Z,83
2022-08-27T20:26:01.022Z,83
2022-08-27T20:27:55.909Z,83
2022-08-27T20:31:55.843Z,84
2022-08-27T20:33:57.057Z,84
2022-08-27T20:35:56.371Z,84
2022-08-27T20:38:00.266Z,84
2022-08-27T20:39:58.843Z,83
2022-08-27T20:41:58.827Z,83
2022-08-27T20:45:57.467Z,83
2022-08-27T20:47:58.088Z,83
2022-08-27T20:49:55.122Z,83
2022-08-27T20:55:56.952Z,84
2022-08-27T20:58:04.491Z,84
2022-08-27T21:01:55.930Z,84
2022-08-27T21:03:55.474Z,84
2022-08-27T21:05:58.173Z,84
2022-08-27T21:08:00.695Z,84
2022-08-27T21:09:59.376Z,84
2022-08-27T21:11:58.104Z,84
2022-08-27T21:13:56.773Z,84
2022-08-27T21:16:01.247Z,84
2022-08-27T21:20:05.495Z,85
2022-08-27T21:22:06.327Z,85
2022-08-27T21:23:58.120Z,85
2022-08-27T21:25:56.374Z,85
2022-08-27T21:28:00.768Z,85
2022-08-27T21:33:55.083Z,85
2022-08-27T21:36:02.280Z,85
2022-08-27T21:37:57.732Z,85
2022-08-27T21:40:01.556Z,84
2022-08-27T21:44:04.443Z,84
2022-08-27T21:45:56.427Z,84
2022-08-27T21:49:58.410Z,85
2022-08-27T21:52:04.699Z,85
2022-08-27T21:55:56.307Z,85
2022-08-27T22:02:00.744Z,84
2022-08-27T22:03:56.846Z,85
2022-08-27T22:06:04.970Z,85
2022-08-27T22:07:55.970Z,85
2022-08-27T22:14:01.569Z,85
2022-08-27T22:15:57.816Z,85
2022-08-27T22:17:57.915Z,85
2022-08-27T22:19:55.484Z,85
2022-08-27T22:21:56.845Z,85
2022-08-27T22:24:04.776Z,85
2022-08-27T22:25:58.478Z,85
2022-08-27T22:27:57.349Z,86
2022-08-27T22:29:58.199Z,85
2022-08-27T22:31:55.461Z,85
2022-08-27T22:33:55.467Z,85
2022-08-27T22:36:00.424Z,86
2022-08-27T22:37:58.814Z,86
2022-08-27T22:39:57.410Z,86
2022-08-27T22:42:00.447Z,86
2022-08-27T22:44:01.345Z,86
2022-08-27T22:46:01.470Z,86
2022-08-27T22:49:56.195Z,86
2022-08-27T22:51:57.136Z,85
2022-08-27T22:53:58.189Z,86
2022-08-27T22:55:56.025Z,86
2022-08-27T22:57:56.377Z,86
2022-08-27T22:59:58.037Z,86
2022-08-27T23:01:57.939Z,86
2022-08-27T23:03:55.980Z,86
2022-08-27T23:05:58.211Z,86
2022-08-27T23:07:55.917Z,86
2022-08-27T23:09:55.120Z,86
2022-08-27T23:11:57.360Z,86
2022-08-27T23:14:00.865Z,86
2022-08-27T23:16:01.647Z,86
2022-08-27T23:19:56.552Z,86
2022-08-27T23:21:56.908Z,86
2022-08-27T23:23:58.043Z,86
2022-08-27T23:25:55.423Z,86
2022-08-27T23:28:00.176Z,86
2022-08-27T23:31:56.909Z,86
2022-08-27T23:34:04.958Z,86
2022-08-27T23:35:57.677Z,86
2022-08-27T23:37:57.005Z,86
2022-08-27T23:39:56.253Z,86
2022-08-27T23:43:56.051Z,86
2022-08-27T23:45:57.302Z,86
2022-08-27T23:47:57.857Z,86
2022-08-27T23:49:57.550Z,86
2022-08-27T23:51:56.117Z,86
2022-08-27T23:53:57.911Z,86
2022-08-27T23:55:56.535Z,86
2022-08-27T23:57:56.685Z,86
